sensor_id;sensor_type;location;lat;lon;timestamp;temperature;humidity
19085;DHT22;9675;51.538;6.728;2022-08-03T00:01:08;26.20;99.90
19085;DHT22;9675;51.538;6.728;2022-08-03T00:03:35;26.20;99.90
19085;DHT22;9675;51.538;6.728;2022-08-03T00:06:02;26.10;99.90
19085;DHT22;9675;51.538;6.728;2022-08-03T00:08:31;26.10;99.90
19085;DHT22;9675;51.538;6.728;2022-08-03T00:10:58;26.10;99.90
19085;DHT22;9675;51.538;6.728;2022-08-03T00:13:25;26.10;99.90
19085;DHT22;9675;51.538;6.728;2022-08-03T00:15:52;26.10;99.90
19085;DHT22;9675;51.538;6.728;2022-08-03T00:18:20;26.00;99.90
19085;DHT22;9675;51.538;6.728;2022-08-03T00:20:47;26.00;99.90
19085;DHT22;9675;51.538;6.728;2022-08-03T00:23:14;26.00;99.90
19085;DHT22;9675;51.538;6.728;2022-08-03T00:25:43;25.90;99.90
19085;DHT22;9675;51.538;6.728;2022-08-03T00:28:10;25.90;99.90
19085;DHT22;9675;51.538;6.728;2022-08-03T00:30:37;25.90;99.90
19085;DHT22;9675;51.538;6.728;2022-08-03T00:33:04;25.80;99.90
19085;DHT22;9675;51.538;6.728;2022-08-03T00:35:31;25.80;99.90
19085;DHT22;9675;51.538;6.728;2022-08-03T00:37:59;25.80;99.90
19085;DHT22;9675;51.538;6.728;2022-08-03T00:40:26;25.80;99.90
19085;DHT22;9675;51.538;6.728;2022-08-03T00:42:57;25.80;99.90
19085;DHT22;9675;51.538;6.728;2022-08-03T00:45:28;25.70;99.90
19085;DHT22;9675;51.538;6.728;2022-08-03T00:47:57;25.70;99.90
19085;DHT22;9675;51.538;6.728;2022-08-03T00:50:27;25.70;99.90
19085;DHT22;9675;51.538;6.728;2022-08-03T00:52:58;25.60;99.90
19085;DHT22;9675;51.538;6.728;2022-08-03T00:55:25;25.60;99.90
19085;DHT22;9675;51.538;6.728;2022-08-03T00:57:55;25.60;99.90
19085;DHT22;9675;51.538;6.728;2022-08-03T01:00:26;25.50;99.90
19085;DHT22;9675;51.538;6.728;2022-08-03T01:02:53;25.50;99.90
19085;DHT22;9675;51.538;6.728;2022-08-03T01:05:20;25.50;99.90
19085;DHT22;9675;51.538;6.728;2022-08-03T01:07:59;25.50;99.90
19085;DHT22;9675;51.538;6.728;2022-08-03T01:10:36;25.40;99.90
19085;DHT22;9675;51.538;6.728;2022-08-03T01:13:20;25.40;99.90
19085;DHT22;9675;51.538;6.728;2022-08-03T01:15:58;25.40;99.90
19085;DHT22;9675;51.538;6.728;2022-08-03T01:18:35;25.30;99.90
19085;DHT22;9675;51.538;6.728;2022-08-03T01:21:09;25.30;99.90
19085;DHT22;9675;51.538;6.728;2022-08-03T01:24:01;25.30;99.90
19085;DHT22;9675;51.538;6.728;2022-08-03T01:26:52;25.30;99.90
19085;DHT22;9675;51.538;6.728;2022-08-03T01:29:51;25.20;99.90
19085;DHT22;9675;51.538;6.728;2022-08-03T01:32:30;25.20;99.90
19085;DHT22;9675;51.538;6.728;2022-08-03T01:35:05;25.10;99.90
19085;DHT22;9675;51.538;6.728;2022-08-03T01:37:39;25.10;99.90
19085;DHT22;9675;51.538;6.728;2022-08-03T01:40:10;25.10;99.90
19085;DHT22;9675;51.538;6.728;2022-08-03T01:42:40;25.10;99.90
19085;DHT22;9675;51.538;6.728;2022-08-03T01:45:13;25.00;99.90
19085;DHT22;9675;51.538;6.728;2022-08-03T01:47:44;25.00;99.90
19085;DHT22;9675;51.538;6.728;2022-08-03T01:50:12;25.00;99.90
19085;DHT22;9675;51.538;6.728;2022-08-03T01:52:43;24.90;99.90
19085;DHT22;9675;51.538;6.728;2022-08-03T01:55:12;24.90;99.90
19085;DHT22;9675;51.538;6.728;2022-08-03T01:57:43;24.90;99.90
19085;DHT22;9675;51.538;6.728;2022-08-03T02:00:15;24.90;99.90
19085;DHT22;9675;51.538;6.728;2022-08-03T02:02:46;24.80;99.90
19085;DHT22;9675;51.538;6.728;2022-08-03T02:05:17;24.80;99.90
19085;DHT22;9675;51.538;6.728;2022-08-03T02:07:47;24.80;99.90
19085;DHT22;9675;51.538;6.728;2022-08-03T02:10:18;24.80;99.90
19085;DHT22;9675;51.538;6.728;2022-08-03T02:12:47;24.80;99.90
19085;DHT22;9675;51.538;6.728;2022-08-03T02:15:18;24.70;99.90
19085;DHT22;9675;51.538;6.728;2022-08-03T02:17:47;24.70;99.90
19085;DHT22;9675;51.538;6.728;2022-08-03T02:20:15;24.70;99.90
19085;DHT22;9675;51.538;6.728;2022-08-03T02:22:44;24.60;99.90
19085;DHT22;9675;51.538;6.728;2022-08-03T02:25:14;24.60;99.90
19085;DHT22;9675;51.538;6.728;2022-08-03T02:27:51;24.60;99.90
19085;DHT22;9675;51.538;6.728;2022-08-03T02:30:30;24.60;99.90
19085;DHT22;9675;51.538;6.728;2022-08-03T02:33:04;24.60;99.90
19085;DHT22;9675;51.538;6.728;2022-08-03T02:35:35;24.50;99.90
19085;DHT22;9675;51.538;6.728;2022-08-03T02:38:04;24.50;99.90
19085;DHT22;9675;51.538;6.728;2022-08-03T02:40:33;24.50;99.90
19085;DHT22;9675;51.538;6.728;2022-08-03T02:43:06;24.40;99.90
19085;DHT22;9675;51.538;6.728;2022-08-03T02:45:41;24.40;99.90
19085;DHT22;9675;51.538;6.728;2022-08-03T02:48:15;24.40;99.90
19085;DHT22;9675;51.538;6.728;2022-08-03T02:50:46;24.40;99.90
19085;DHT22;9675;51.538;6.728;2022-08-03T02:53:16;24.30;99.90
19085;DHT22;9675;51.538;6.728;2022-08-03T02:55:46;24.30;99.90
19085;DHT22;9675;51.538;6.728;2022-08-03T02:58:17;24.30;99.90
19085;DHT22;9675;51.538;6.728;2022-08-03T03:00:48;24.30;99.90
19085;DHT22;9675;51.538;6.728;2022-08-03T03:03:17;24.20;99.90
19085;DHT22;9675;51.538;6.728;2022-08-03T03:05:46;24.20;99.90
19085;DHT22;9675;51.538;6.728;2022-08-03T03:08:18;24.20;99.90
19085;DHT22;9675;51.538;6.728;2022-08-03T03:10:47;24.20;99.90
19085;DHT22;9675;51.538;6.728;2022-08-03T03:13:15;24.10;99.90
19085;DHT22;9675;51.538;6.728;2022-08-03T03:15:45;24.10;99.90
19085;DHT22;9675;51.538;6.728;2022-08-03T03:18:16;24.10;99.90
19085;DHT22;9675;51.538;6.728;2022-08-03T03:20:44;24.10;99.90
19085;DHT22;9675;51.538;6.728;2022-08-03T03:23:13;24.00;99.90
19085;DHT22;9675;51.538;6.728;2022-08-03T03:25:41;24.10;99.90
19085;DHT22;9675;51.538;6.728;2022-08-03T03:28:09;24.00;99.90
19085;DHT22;9675;51.538;6.728;2022-08-03T03:30:37;24.00;99.90
19085;DHT22;9675;51.538;6.728;2022-08-03T03:33:05;24.00;99.90
19085;DHT22;9675;51.538;6.728;2022-08-03T03:35:33;23.90;99.90
19085;DHT22;9675;51.538;6.728;2022-08-03T03:38:01;23.90;99.90
19085;DHT22;9675;51.538;6.728;2022-08-03T03:40:28;23.90;99.90
19085;DHT22;9675;51.538;6.728;2022-08-03T03:42:55;23.80;99.90
19085;DHT22;9675;51.538;6.728;2022-08-03T03:45:23;23.90;99.90
19085;DHT22;9675;51.538;6.728;2022-08-03T03:47:51;23.80;99.90
19085;DHT22;9675;51.538;6.728;2022-08-03T03:50:19;23.80;99.90
19085;DHT22;9675;51.538;6.728;2022-08-03T03:52:48;23.70;99.90
19085;DHT22;9675;51.538;6.728;2022-08-03T03:55:16;23.80;99.90
19085;DHT22;9675;51.538;6.728;2022-08-03T03:57:44;23.70;99.90
19085;DHT22;9675;51.538;6.728;2022-08-03T04:00:12;23.70;99.90
19085;DHT22;9675;51.538;6.728;2022-08-03T04:02:41;23.70;99.90
19085;DHT22;9675;51.538;6.728;2022-08-03T04:05:08;23.70;99.90
19085;DHT22;9675;51.538;6.728;2022-08-03T04:07:58;23.60;99.90
19085;DHT22;9675;51.538;6.728;2022-08-03T04:10:58;23.60;99.90
19085;DHT22;9675;51.538;6.728;2022-08-03T04:13:49;23.60;99.90
19085;DHT22;9675;51.538;6.728;2022-08-03T04:16:24;23.60;99.90
19085;DHT22;9675;51.538;6.728;2022-08-03T04:18:58;23.50;99.90
19085;DHT22;9675;51.538;6.728;2022-08-03T04:21:29;23.50;99.90
19085;DHT22;9675;51.538;6.728;2022-08-03T04:24:03;23.50;99.90
19085;DHT22;9675;51.538;6.728;2022-08-03T04:26:37;23.50;99.90
19085;DHT22;9675;51.538;6.728;2022-08-03T04:29:06;23.50;99.90
19085;DHT22;9675;51.538;6.728;2022-08-03T04:31:35;23.40;99.90
19085;DHT22;9675;51.538;6.728;2022-08-03T04:34:04;23.40;99.90
19085;DHT22;9675;51.538;6.728;2022-08-03T04:36:33;23.40;99.90
19085;DHT22;9675;51.538;6.728;2022-08-03T04:39:12;23.40;99.90
19085;DHT22;9675;51.538;6.728;2022-08-03T04:41:42;23.40;99.90
19085;DHT22;9675;51.538;6.728;2022-08-03T04:44:13;23.40;99.90
19085;DHT22;9675;51.538;6.728;2022-08-03T04:46:41;23.40;99.90
19085;DHT22;9675;51.538;6.728;2022-08-03T04:49:09;23.30;99.90
19085;DHT22;9675;51.538;6.728;2022-08-03T04:51:37;23.30;99.90
19085;DHT22;9675;51.538;6.728;2022-08-03T04:54:06;23.30;99.90
19085;DHT22;9675;51.538;6.728;2022-08-03T04:56:38;23.30;99.90
19085;DHT22;9675;51.538;6.728;2022-08-03T04:59:06;23.30;99.90
19085;DHT22;9675;51.538;6.728;2022-08-03T05:01:33;23.20;99.90
19085;DHT22;9675;51.538;6.728;2022-08-03T05:04:00;23.20;99.90
19085;DHT22;9675;51.538;6.728;2022-08-03T05:06:28;23.20;99.90
19085;DHT22;9675;51.538;6.728;2022-08-03T05:08:55;23.20;99.90
19085;DHT22;9675;51.538;6.728;2022-08-03T05:11:23;23.20;99.90
19085;DHT22;9675;51.538;6.728;2022-08-03T05:13:50;23.10;99.90
19085;DHT22;9675;51.538;6.728;2022-08-03T05:16:17;23.20;99.90
19085;DHT22;9675;51.538;6.728;2022-08-03T05:18:44;23.10;99.90
19085;DHT22;9675;51.538;6.728;2022-08-03T05:21:12;23.10;99.90
19085;DHT22;9675;51.538;6.728;2022-08-03T05:23:41;23.10;99.90
19085;DHT22;9675;51.538;6.728;2022-08-03T05:26:08;23.10;99.90
19085;DHT22;9675;51.538;6.728;2022-08-03T05:28:38;23.00;99.90
19085;DHT22;9675;51.538;6.728;2022-08-03T05:31:06;23.10;99.90
19085;DHT22;9675;51.538;6.728;2022-08-03T05:33:33;23.10;99.90
19085;DHT22;9675;51.538;6.728;2022-08-03T05:36:00;23.00;99.90
19085;DHT22;9675;51.538;6.728;2022-08-03T05:38:27;23.00;99.90
19085;DHT22;9675;51.538;6.728;2022-08-03T05:40:55;23.00;99.90
19085;DHT22;9675;51.538;6.728;2022-08-03T05:43:22;23.00;99.90
19085;DHT22;9675;51.538;6.728;2022-08-03T05:45:51;23.00;99.90
19085;DHT22;9675;51.538;6.728;2022-08-03T05:48:18;23.00;99.90
19085;DHT22;9675;51.538;6.728;2022-08-03T05:50:45;23.00;99.90
19085;DHT22;9675;51.538;6.728;2022-08-03T05:53:12;23.00;99.90
19085;DHT22;9675;51.538;6.728;2022-08-03T05:55:39;23.00;99.90
19085;DHT22;9675;51.538;6.728;2022-08-03T05:58:06;23.00;99.90
19085;DHT22;9675;51.538;6.728;2022-08-03T06:00:33;23.00;99.90
19085;DHT22;9675;51.538;6.728;2022-08-03T06:03:02;23.00;99.90
19085;DHT22;9675;51.538;6.728;2022-08-03T06:05:30;23.10;99.90
19085;DHT22;9675;51.538;6.728;2022-08-03T06:08:01;23.10;99.90
19085;DHT22;9675;51.538;6.728;2022-08-03T06:10:28;23.10;99.90
19085;DHT22;9675;51.538;6.728;2022-08-03T06:12:55;23.10;99.90
19085;DHT22;9675;51.538;6.728;2022-08-03T06:15:22;23.10;99.90
19085;DHT22;9675;51.538;6.728;2022-08-03T06:17:50;23.10;99.90
19085;DHT22;9675;51.538;6.728;2022-08-03T06:20:20;23.10;99.90
19085;DHT22;9675;51.538;6.728;2022-08-03T06:22:47;23.10;99.90
19085;DHT22;9675;51.538;6.728;2022-08-03T06:25:15;23.10;99.90
19085;DHT22;9675;51.538;6.728;2022-08-03T06:27:43;23.20;99.90
19085;DHT22;9675;51.538;6.728;2022-08-03T06:30:11;23.20;99.90
19085;DHT22;9675;51.538;6.728;2022-08-03T06:32:39;23.20;99.90
19085;DHT22;9675;51.538;6.728;2022-08-03T06:35:08;23.20;99.90
19085;DHT22;9675;51.538;6.728;2022-08-03T06:37:42;23.30;99.90
19085;DHT22;9675;51.538;6.728;2022-08-03T06:40:11;23.40;99.90
19085;DHT22;9675;51.538;6.728;2022-08-03T06:42:40;23.30;99.90
19085;DHT22;9675;51.538;6.728;2022-08-03T06:45:08;23.40;99.90
19085;DHT22;9675;51.538;6.728;2022-08-03T06:47:36;23.40;99.90
19085;DHT22;9675;51.538;6.728;2022-08-03T06:50:04;23.40;99.90
19085;DHT22;9675;51.538;6.728;2022-08-03T06:52:33;23.50;99.90
19085;DHT22;9675;51.538;6.728;2022-08-03T06:55:02;23.50;99.90
19085;DHT22;9675;51.538;6.728;2022-08-03T06:57:30;23.50;99.90
19085;DHT22;9675;51.538;6.728;2022-08-03T06:59:57;23.60;99.90
19085;DHT22;9675;51.538;6.728;2022-08-03T07:02:26;23.70;99.90
19085;DHT22;9675;51.538;6.728;2022-08-03T07:04:53;23.70;99.90
19085;DHT22;9675;51.538;6.728;2022-08-03T07:07:21;23.70;99.90
19085;DHT22;9675;51.538;6.728;2022-08-03T07:09:48;23.80;99.90
19085;DHT22;9675;51.538;6.728;2022-08-03T07:12:16;23.90;99.90
19085;DHT22;9675;51.538;6.728;2022-08-03T07:14:43;23.90;99.90
19085;DHT22;9675;51.538;6.728;2022-08-03T07:17:10;24.00;99.90
19085;DHT22;9675;51.538;6.728;2022-08-03T07:19:37;24.00;99.90
19085;DHT22;9675;51.538;6.728;2022-08-03T07:22:05;24.10;99.90
19085;DHT22;9675;51.538;6.728;2022-08-03T07:24:33;24.10;99.90
19085;DHT22;9675;51.538;6.728;2022-08-03T07:27:00;24.20;99.90
19085;DHT22;9675;51.538;6.728;2022-08-03T07:29:29;24.30;99.90
19085;DHT22;9675;51.538;6.728;2022-08-03T07:31:56;24.30;99.90
19085;DHT22;9675;51.538;6.728;2022-08-03T07:34:23;24.40;99.90
19085;DHT22;9675;51.538;6.728;2022-08-03T07:36:50;24.50;99.90
19085;DHT22;9675;51.538;6.728;2022-08-03T07:39:17;24.60;99.90
19085;DHT22;9675;51.538;6.728;2022-08-03T07:41:45;24.60;99.90
19085;DHT22;9675;51.538;6.728;2022-08-03T07:44:12;24.70;99.90
19085;DHT22;9675;51.538;6.728;2022-08-03T07:46:40;24.80;99.90
19085;DHT22;9675;51.538;6.728;2022-08-03T07:49:08;24.90;99.90
19085;DHT22;9675;51.538;6.728;2022-08-03T07:51:35;25.00;99.90
19085;DHT22;9675;51.538;6.728;2022-08-03T07:54:03;25.00;99.90
19085;DHT22;9675;51.538;6.728;2022-08-03T07:56:31;25.10;99.90
19085;DHT22;9675;51.538;6.728;2022-08-03T07:59:12;25.20;99.90
19085;DHT22;9675;51.538;6.728;2022-08-03T08:01:42;25.30;99.90
19085;DHT22;9675;51.538;6.728;2022-08-03T08:04:29;25.40;99.90
19085;DHT22;9675;51.538;6.728;2022-08-03T08:06:59;25.50;99.90
19085;DHT22;9675;51.538;6.728;2022-08-03T08:09:26;25.60;99.90
19085;DHT22;9675;51.538;6.728;2022-08-03T08:11:53;25.70;99.90
19085;DHT22;9675;51.538;6.728;2022-08-03T08:14:20;25.80;99.90
19085;DHT22;9675;51.538;6.728;2022-08-03T08:16:49;25.90;99.90
19085;DHT22;9675;51.538;6.728;2022-08-03T08:19:16;26.00;99.90
19085;DHT22;9675;51.538;6.728;2022-08-03T08:21:44;26.10;99.90
19085;DHT22;9675;51.538;6.728;2022-08-03T08:24:11;26.10;99.90
19085;DHT22;9675;51.538;6.728;2022-08-03T08:26:38;26.20;99.90
19085;DHT22;9675;51.538;6.728;2022-08-03T08:29:05;26.30;99.90
19085;DHT22;9675;51.538;6.728;2022-08-03T08:31:32;26.40;99.90
19085;DHT22;9675;51.538;6.728;2022-08-03T08:34:01;26.50;99.90
19085;DHT22;9675;51.538;6.728;2022-08-03T08:36:31;26.60;99.90
19085;DHT22;9675;51.538;6.728;2022-08-03T08:38:58;26.60;99.90
19085;DHT22;9675;51.538;6.728;2022-08-03T08:41:26;26.70;99.90
19085;DHT22;9675;51.538;6.728;2022-08-03T08:43:53;26.80;99.90
19085;DHT22;9675;51.538;6.728;2022-08-03T08:46:21;27.00;99.90
19085;DHT22;9675;51.538;6.728;2022-08-03T08:48:50;27.10;99.90
19085;DHT22;9675;51.538;6.728;2022-08-03T08:51:21;27.20;99.90
19085;DHT22;9675;51.538;6.728;2022-08-03T08:53:53;27.30;99.90
19085;DHT22;9675;51.538;6.728;2022-08-03T08:56:24;27.40;99.90
19085;DHT22;9675;51.538;6.728;2022-08-03T08:58:56;27.50;99.90
19085;DHT22;9675;51.538;6.728;2022-08-03T09:01:25;27.50;99.90
19085;DHT22;9675;51.538;6.728;2022-08-03T09:03:53;27.60;99.90
19085;DHT22;9675;51.538;6.728;2022-08-03T09:06:23;27.70;99.90
19085;DHT22;9675;51.538;6.728;2022-08-03T09:08:50;27.80;99.90
19085;DHT22;9675;51.538;6.728;2022-08-03T09:11:20;27.90;99.90
19085;DHT22;9675;51.538;6.728;2022-08-03T09:13:48;28.00;99.90
19085;DHT22;9675;51.538;6.728;2022-08-03T09:16:17;28.10;99.90
19085;DHT22;9675;51.538;6.728;2022-08-03T09:18:47;28.20;99.90
19085;DHT22;9675;51.538;6.728;2022-08-03T09:21:20;28.20;99.90
19085;DHT22;9675;51.538;6.728;2022-08-03T09:23:51;28.30;99.90
19085;DHT22;9675;51.538;6.728;2022-08-03T09:26:21;28.50;99.90
19085;DHT22;9675;51.538;6.728;2022-08-03T09:28:57;28.60;99.90
19085;DHT22;9675;51.538;6.728;2022-08-03T09:31:29;28.60;99.90
19085;DHT22;9675;51.538;6.728;2022-08-03T09:33:59;28.70;99.90
19085;DHT22;9675;51.538;6.728;2022-08-03T09:36:37;28.90;99.90
19085;DHT22;9675;51.538;6.728;2022-08-03T09:39:07;29.00;99.90
19085;DHT22;9675;51.538;6.728;2022-08-03T09:41:37;29.10;99.90
19085;DHT22;9675;51.538;6.728;2022-08-03T09:44:05;29.20;99.90
19085;DHT22;9675;51.538;6.728;2022-08-03T09:46:47;29.30;99.90
19085;DHT22;9675;51.538;6.728;2022-08-03T09:49:15;29.40;99.90
19085;DHT22;9675;51.538;6.728;2022-08-03T09:51:44;29.50;99.90
19085;DHT22;9675;51.538;6.728;2022-08-03T09:54:12;29.70;99.90
19085;DHT22;9675;51.538;6.728;2022-08-03T09:56:43;29.70;99.90
19085;DHT22;9675;51.538;6.728;2022-08-03T09:59:13;29.90;99.90
19085;DHT22;9675;51.538;6.728;2022-08-03T10:01:57;29.90;99.90
19085;DHT22;9675;51.538;6.728;2022-08-03T10:04:25;30.10;99.90
19085;DHT22;9675;51.538;6.728;2022-08-03T10:07:04;30.10;99.90
19085;DHT22;9675;51.538;6.728;2022-08-03T10:09:34;30.30;99.90
19085;DHT22;9675;51.538;6.728;2022-08-03T10:12:09;30.40;99.90
19085;DHT22;9675;51.538;6.728;2022-08-03T10:14:39;30.50;99.90
19085;DHT22;9675;51.538;6.728;2022-08-03T10:17:09;30.60;99.90
19085;DHT22;9675;51.538;6.728;2022-08-03T10:19:37;30.70;99.90
19085;DHT22;9675;51.538;6.728;2022-08-03T10:22:11;30.80;99.90
19085;DHT22;9675;51.538;6.728;2022-08-03T10:24:47;30.90;99.90
19085;DHT22;9675;51.538;6.728;2022-08-03T10:27:19;31.00;99.90
19085;DHT22;9675;51.538;6.728;2022-08-03T10:29:52;31.10;99.90
19085;DHT22;9675;51.538;6.728;2022-08-03T10:32:26;31.20;99.90
19085;DHT22;9675;51.538;6.728;2022-08-03T10:35:01;31.20;99.90
19085;DHT22;9675;51.538;6.728;2022-08-03T10:37:36;31.30;99.90
19085;DHT22;9675;51.538;6.728;2022-08-03T10:40:11;31.40;99.90
19085;DHT22;9675;51.538;6.728;2022-08-03T10:42:41;31.40;99.90
19085;DHT22;9675;51.538;6.728;2022-08-03T10:45:16;31.50;99.90
19085;DHT22;9675;51.538;6.728;2022-08-03T10:47:45;31.70;99.90
19085;DHT22;9675;51.538;6.728;2022-08-03T10:50:14;31.80;99.90
19085;DHT22;9675;51.538;6.728;2022-08-03T10:52:56;31.90;99.90
19085;DHT22;9675;51.538;6.728;2022-08-03T10:55:30;32.00;99.90
19085;DHT22;9675;51.538;6.728;2022-08-03T10:58:47;32.10;99.90
19085;DHT22;9675;51.538;6.728;2022-08-03T11:01:16;32.20;99.90
19085;DHT22;9675;51.538;6.728;2022-08-03T11:04:15;32.30;99.90
19085;DHT22;9675;51.538;6.728;2022-08-03T11:06:45;32.40;99.90
19085;DHT22;9675;51.538;6.728;2022-08-03T11:09:15;32.60;99.90
19085;DHT22;9675;51.538;6.728;2022-08-03T11:11:45;32.60;99.90
19085;DHT22;9675;51.538;6.728;2022-08-03T11:14:17;32.70;99.90
19085;DHT22;9675;51.538;6.728;2022-08-03T11:16:46;32.80;99.90
19085;DHT22;9675;51.538;6.728;2022-08-03T11:19:16;32.80;99.90
19085;DHT22;9675;51.538;6.728;2022-08-03T11:21:56;32.90;99.90
19085;DHT22;9675;51.538;6.728;2022-08-03T11:24:56;33.10;99.90
19085;DHT22;9675;51.538;6.728;2022-08-03T11:27:26;33.10;99.90
19085;DHT22;9675;51.538;6.728;2022-08-03T11:29:56;33.20;99.90
19085;DHT22;9675;51.538;6.728;2022-08-03T11:32:50;33.30;99.90
19085;DHT22;9675;51.538;6.728;2022-08-03T11:35:24;33.40;99.90
19085;DHT22;9675;51.538;6.728;2022-08-03T11:38:04;33.50;99.90
19085;DHT22;9675;51.538;6.728;2022-08-03T11:40:39;33.60;99.90
19085;DHT22;9675;51.538;6.728;2022-08-03T11:43:25;33.70;99.90
19085;DHT22;9675;51.538;6.728;2022-08-03T11:46:10;33.80;99.90
19085;DHT22;9675;51.538;6.728;2022-08-03T11:48:43;33.90;99.90
19085;DHT22;9675;51.538;6.728;2022-08-03T11:51:19;33.90;99.90
19085;DHT22;9675;51.538;6.728;2022-08-03T11:53:55;34.00;99.90
19085;DHT22;9675;51.538;6.728;2022-08-03T11:56:26;34.10;99.90
19085;DHT22;9675;51.538;6.728;2022-08-03T11:58:55;34.20;99.90
19085;DHT22;9675;51.538;6.728;2022-08-03T12:01:24;34.30;99.90
19085;DHT22;9675;51.538;6.728;2022-08-03T12:03:52;34.30;99.90
19085;DHT22;9675;51.538;6.728;2022-08-03T12:06:19;34.40;99.90
19085;DHT22;9675;51.538;6.728;2022-08-03T12:08:46;34.40;99.90
19085;DHT22;9675;51.538;6.728;2022-08-03T12:11:15;34.50;99.90
19085;DHT22;9675;51.538;6.728;2022-08-03T12:13:46;34.60;99.90
19085;DHT22;9675;51.538;6.728;2022-08-03T12:16:20;34.70;99.90
19085;DHT22;9675;51.538;6.728;2022-08-03T12:18:54;34.80;99.90
19085;DHT22;9675;51.538;6.728;2022-08-03T12:21:22;34.90;99.90
19085;DHT22;9675;51.538;6.728;2022-08-03T12:23:49;34.90;99.90
19085;DHT22;9675;51.538;6.728;2022-08-03T12:26:21;35.00;99.90
19085;DHT22;9675;51.538;6.728;2022-08-03T12:28:50;35.10;99.90
19085;DHT22;9675;51.538;6.728;2022-08-03T12:31:17;35.20;99.90
19085;DHT22;9675;51.538;6.728;2022-08-03T12:33:55;35.20;99.90
19085;DHT22;9675;51.538;6.728;2022-08-03T12:36:25;35.30;99.90
19085;DHT22;9675;51.538;6.728;2022-08-03T12:38:56;35.40;99.90
19085;DHT22;9675;51.538;6.728;2022-08-03T12:41:29;35.40;99.90
19085;DHT22;9675;51.538;6.728;2022-08-03T12:43:59;35.40;99.90
19085;DHT22;9675;51.538;6.728;2022-08-03T12:46:32;35.50;99.90
19085;DHT22;9675;51.538;6.728;2022-08-03T12:49:06;35.50;99.90
19085;DHT22;9675;51.538;6.728;2022-08-03T12:51:37;35.60;99.90
19085;DHT22;9675;51.538;6.728;2022-08-03T12:54:22;35.80;99.90
19085;DHT22;9675;51.538;6.728;2022-08-03T12:56:57;35.80;99.90
19085;DHT22;9675;51.538;6.728;2022-08-03T12:59:28;35.90;99.90
19085;DHT22;9675;51.538;6.728;2022-08-03T13:01:56;35.90;99.90
19085;DHT22;9675;51.538;6.728;2022-08-03T13:04:26;35.90;99.90
19085;DHT22;9675;51.538;6.728;2022-08-03T13:06:58;35.90;99.90
19085;DHT22;9675;51.538;6.728;2022-08-03T13:09:28;36.10;99.90
19085;DHT22;9675;51.538;6.728;2022-08-03T13:12:15;36.10;99.90
19085;DHT22;9675;51.538;6.728;2022-08-03T13:14:45;36.20;99.40
19085;DHT22;9675;51.538;6.728;2022-08-03T13:17:14;36.20;99.30
19085;DHT22;9675;51.538;6.728;2022-08-03T13:19:42;36.30;99.00
19085;DHT22;9675;51.538;6.728;2022-08-03T13:22:12;36.30;99.20
19085;DHT22;9675;51.538;6.728;2022-08-03T13:24:41;36.30;99.20
19085;DHT22;9675;51.538;6.728;2022-08-03T13:27:09;36.30;98.90
19085;DHT22;9675;51.538;6.728;2022-08-03T13:29:37;36.40;98.70
19085;DHT22;9675;51.538;6.728;2022-08-03T13:32:06;36.50;98.90
19085;DHT22;9675;51.538;6.728;2022-08-03T13:34:34;36.40;98.80
19085;DHT22;9675;51.538;6.728;2022-08-03T13:37:02;36.50;98.60
19085;DHT22;9675;51.538;6.728;2022-08-03T13:39:29;36.60;98.50
19085;DHT22;9675;51.538;6.728;2022-08-03T13:42:00;36.60;98.50
19085;DHT22;9675;51.538;6.728;2022-08-03T13:44:29;36.50;98.30
19085;DHT22;9675;51.538;6.728;2022-08-03T13:47:03;36.60;98.00
19085;DHT22;9675;51.538;6.728;2022-08-03T13:49:35;36.60;97.90
19085;DHT22;9675;51.538;6.728;2022-08-03T13:52:23;36.60;97.80
19085;DHT22;9675;51.538;6.728;2022-08-03T13:54:52;36.70;97.60
19085;DHT22;9675;51.538;6.728;2022-08-03T13:57:32;36.60;97.40
19085;DHT22;9675;51.538;6.728;2022-08-03T14:00:13;36.70;97.20
19085;DHT22;9675;51.538;6.728;2022-08-03T14:02:42;36.70;96.70
19085;DHT22;9675;51.538;6.728;2022-08-03T14:05:11;36.70;97.30
19085;DHT22;9675;51.538;6.728;2022-08-03T14:07:38;36.70;96.70
19085;DHT22;9675;51.538;6.728;2022-08-03T14:10:06;36.80;96.60
19085;DHT22;9675;51.538;6.728;2022-08-03T14:12:34;36.80;96.20
19085;DHT22;9675;51.538;6.728;2022-08-03T14:15:01;36.80;96.10
19085;DHT22;9675;51.538;6.728;2022-08-03T14:17:28;36.90;96.10
19085;DHT22;9675;51.538;6.728;2022-08-03T14:19:55;36.90;96.20
19085;DHT22;9675;51.538;6.728;2022-08-03T14:22:24;36.90;95.90
19085;DHT22;9675;51.538;6.728;2022-08-03T14:24:51;36.90;95.60
19085;DHT22;9675;51.538;6.728;2022-08-03T14:27:18;36.90;95.40
19085;DHT22;9675;51.538;6.728;2022-08-03T14:29:45;36.80;95.60
19085;DHT22;9675;51.538;6.728;2022-08-03T14:32:12;36.90;95.30
19085;DHT22;9675;51.538;6.728;2022-08-03T14:34:40;36.90;95.40
19085;DHT22;9675;51.538;6.728;2022-08-03T14:37:07;36.90;95.40
19085;DHT22;9675;51.538;6.728;2022-08-03T14:39:35;36.90;95.30
19085;DHT22;9675;51.538;6.728;2022-08-03T14:42:03;36.80;95.30
19085;DHT22;9675;51.538;6.728;2022-08-03T14:44:30;36.90;94.80
19085;DHT22;9675;51.538;6.728;2022-08-03T14:46:58;36.90;95.10
19085;DHT22;9675;51.538;6.728;2022-08-03T14:49:25;36.90;94.90
19085;DHT22;9675;51.538;6.728;2022-08-03T14:51:52;36.90;94.50
19085;DHT22;9675;51.538;6.728;2022-08-03T14:54:19;36.80;94.50
19085;DHT22;9675;51.538;6.728;2022-08-03T14:56:48;36.80;94.30
19085;DHT22;9675;51.538;6.728;2022-08-03T14:59:15;36.80;94.20
19085;DHT22;9675;51.538;6.728;2022-08-03T15:01:43;36.70;94.10
19085;DHT22;9675;51.538;6.728;2022-08-03T15:04:10;36.70;93.80
19085;DHT22;9675;51.538;6.728;2022-08-03T15:06:37;36.70;93.80
19085;DHT22;9675;51.538;6.728;2022-08-03T15:09:04;36.70;93.80
19085;DHT22;9675;51.538;6.728;2022-08-03T15:11:31;36.70;93.80
19085;DHT22;9675;51.538;6.728;2022-08-03T15:13:59;36.70;93.70
19085;DHT22;9675;51.538;6.728;2022-08-03T15:16:27;36.70;93.60
19085;DHT22;9675;51.538;6.728;2022-08-03T15:18:54;36.70;93.70
19085;DHT22;9675;51.538;6.728;2022-08-03T15:21:21;36.70;93.60
19085;DHT22;9675;51.538;6.728;2022-08-03T15:23:48;36.60;93.70
19085;DHT22;9675;51.538;6.728;2022-08-03T15:26:15;36.60;93.60
19085;DHT22;9675;51.538;6.728;2022-08-03T15:28:42;36.70;93.70
19085;DHT22;9675;51.538;6.728;2022-08-03T15:31:11;36.70;93.70
19085;DHT22;9675;51.538;6.728;2022-08-03T15:33:38;36.70;93.60
19085;DHT22;9675;51.538;6.728;2022-08-03T15:36:05;36.60;93.60
19085;DHT22;9675;51.538;6.728;2022-08-03T15:38:33;36.60;93.60
19085;DHT22;9675;51.538;6.728;2022-08-03T15:41:00;36.60;93.50
19085;DHT22;9675;51.538;6.728;2022-08-03T15:43:27;36.60;93.50
19085;DHT22;9675;51.538;6.728;2022-08-03T15:45:54;36.50;93.40
19085;DHT22;9675;51.538;6.728;2022-08-03T15:48:24;36.50;93.40
19085;DHT22;9675;51.538;6.728;2022-08-03T15:50:51;36.50;93.30
19085;DHT22;9675;51.538;6.728;2022-08-03T15:53:19;36.50;93.60
19085;DHT22;9675;51.538;6.728;2022-08-03T15:55:46;36.50;93.50
19085;DHT22;9675;51.538;6.728;2022-08-03T15:58:13;36.60;93.50
19085;DHT22;9675;51.538;6.728;2022-08-03T16:00:41;36.50;93.40
19085;DHT22;9675;51.538;6.728;2022-08-03T16:03:08;36.50;93.50
19085;DHT22;9675;51.538;6.728;2022-08-03T16:05:37;36.50;93.80